Time;durP1;ratioP1;P1;durP2;ratioP2;P2;SDS_P1;SDS_P2;PMS_P1;PMS_P2;Temp;Humidity;BMP_temperature;BMP_pressure;BME280_temperature;BME280_humidity;BME280_pressure;Samples;Min_cycle;Max_cycle;Signal;HPM_P1;HPM_P2
2022/08/18 00:00:30;;;;;;;25.48;8.25;;;18.80;99.90;;;;;;5011026;28;20037;-73
2022/08/18 00:02:59;;;;;;;22.95;8.10;;;19.00;99.90;;;;;;5010730;28;20041;-73
2022/08/18 00:05:25;;;;;;;17.85;7.68;;;19.50;99.90;;;;;;5010677;28;20048;-73
2022/08/18 00:07:51;;;;;;;13.70;7.32;;;19.00;99.90;;;;;;5010837;28;20415;-73
2022/08/18 00:10:16;;;;;;;23.63;8.75;;;19.00;99.90;;;;;;4994652;28;20137;-73
2022/08/18 00:12:42;;;;;;;29.20;9.30;;;18.80;99.90;;;;;;5010957;28;20057;-73
2022/08/18 00:15:11;;;;;;;21.98;8.25;;;18.90;99.90;;;;;;5010423;28;20527;-73
2022/08/18 00:17:37;;;;;;;19.20;8.13;;;18.80;99.90;;;;;;4994919;28;20111;-73
2022/08/18 00:20:09;;;;;;;18.80;8.32;;;18.60;99.90;;;;;;5011058;28;20060;-73
2022/08/18 00:22:36;;;;;;;22.75;7.45;;;18.90;99.90;;;;;;5011201;28;20140;-73
2022/08/18 00:25:03;;;;;;;17.25;8.15;;;18.90;99.90;;;;;;5010656;28;20096;-73
2022/08/18 00:27:30;;;;;;;26.40;8.40;;;19.10;99.90;;;;;;5011020;28;20050;-74
2022/08/18 00:29:58;;;;;;;19.02;7.63;;;18.80;99.90;;;;;;5010758;28;20500;-73
2022/08/18 00:32:29;;;;;;;19.13;7.68;;;18.80;99.90;;;;;;5012231;28;20467;-73
2022/08/18 00:34:55;;;;;;;20.77;8.27;;;19.00;99.90;;;;;;5031043;28;20122;-74
2022/08/18 00:37:22;;;;;;;19.60;7.90;;;18.90;99.90;;;;;;5014719;28;20077;-74
2022/08/18 00:39:51;;;;;;;20.08;8.07;;;19.40;99.90;;;;;;5014738;28;20038;-73
2022/08/18 00:42:28;;;;;;;18.17;8.43;;;18.80;99.90;;;;;;5014573;28;20052;-73
2022/08/18 00:44:55;;;;;;;19.85;7.97;;;18.90;99.90;;;;;;5015571;28;20046;-73
2022/08/18 00:47:21;;;;;;;23.83;7.85;;;18.80;99.90;;;;;;5015852;28;20041;-73
2022/08/18 00:49:50;;;;;;;19.33;7.25;;;18.80;99.90;;;;;;5014471;28;20120;-73
2022/08/18 00:52:16;;;;;;;16.50;8.45;;;19.40;99.90;;;;;;5014403;28;20058;-73
2022/08/18 00:54:44;;;;;;;15.63;7.70;;;18.90;99.90;;;;;;5014081;28;20220;-73
2022/08/18 00:57:12;;;;;;;16.63;7.63;;;18.80;99.90;;;;;;4998162;28;20045;-73
2022/08/18 00:59:49;;;;;;;20.42;7.78;;;18.80;99.90;;;;;;5015518;28;20046;-73
2022/08/18 01:02:22;;;;;;;13.85;6.95;;;19.00;99.90;;;;;;5014537;28;20049;-73
2022/08/18 01:04:56;;;;;;;20.65;6.93;;;18.70;99.90;;;;;;5014016;28;20443;-73
2022/08/18 01:07:29;;;;;;;19.15;7.35;;;18.70;99.90;;;;;;5015548;28;20129;-73
2022/08/18 01:09:59;;;;;;;19.55;8.15;;;18.60;99.90;;;;;;5015379;28;20054;-73
2022/08/18 01:12:28;;;;;;;24.75;7.70;;;19.70;99.90;;;;;;4997718;28;20042;-73
2022/08/18 01:14:54;;;;;;;15.88;7.45;;;19.00;99.90;;;;;;5013463;28;20045;-73
2022/08/18 01:23:15;;;;;;;16.30;6.88;;;18.70;99.90;;;;;;5015123;28;20046;-73
2022/08/18 01:25:58;;;;;;;15.80;6.93;;;18.80;99.90;;;;;;5014926;28;20534;-73
2022/08/18 01:28:32;;;;;;;18.17;7.45;;;18.60;99.90;;;;;;5014016;28;20384;-73
2022/08/18 01:31:00;;;;;;;17.63;7.47;;;19.00;99.90;;;;;;5014972;28;20038;-73
2022/08/18 01:33:31;;;;;;;18.20;6.63;;;18.60;99.90;;;;;;5014851;28;20045;-73
2022/08/18 01:35:59;;;;;;;13.60;6.55;;;18.80;99.90;;;;;;4996747;28;20049;-73
2022/08/18 01:38:26;;;;;;;19.15;6.30;;;19.90;99.90;;;;;;5015018;28;20042;-73
2022/08/18 01:40:53;;;;;;;17.50;6.40;;;19.20;99.90;;;;;;5013701;28;20417;-73
2022/08/18 01:43:19;;;;;;;15.45;6.40;;;19.20;99.90;;;;;;5013157;28;20053;-73
2022/08/18 01:45:46;;;;;;;20.55;7.05;;;19.10;99.90;;;;;;5012536;28;20045;-73
2022/08/18 01:48:12;;;;;;;21.05;7.45;;;18.80;99.90;;;;;;5014601;28;20515;-73
2022/08/18 01:50:40;;;;;;;13.50;6.50;;;18.60;99.90;;;;;;5013427;28;20450;-73
2022/08/18 01:53:07;;;;;;;19.15;7.95;;;18.70;99.90;;;;;;5013173;28;20053;-73
2022/08/18 01:55:34;;;;;;;14.82;6.60;;;19.00;99.90;;;;;;5012956;28;20491;-73
2022/08/18 01:58:00;;;;;;;27.90;8.20;;;19.90;99.90;;;;;;5013292;28;20049;-73
2022/08/18 02:00:27;;;;;;;16.15;6.65;;;19.80;99.90;;;;;;5014334;28;20037;-73
2022/08/18 02:05:32;;;;;;;20.67;7.53;;;18.70;99.90;;;;;;5030087;28;20057;-73
2022/08/18 02:07:58;;;;;;;22.67;9.20;;;18.90;99.90;;;;;;5000231;28;20048;-73
2022/08/18 02:10:24;;;;;;;26.50;9.63;;;19.10;99.90;;;;;;5034118;28;20034;-73
2022/08/18 02:12:50;;;;;;;19.65;10.38;;;19.40;99.90;;;;;;5016246;28;20037;-74
2022/08/18 02:15:15;;;;;;;23.23;9.82;;;19.90;99.90;;;;;;4996633;28;20030;-73
2022/08/18 02:17:43;;;;;;;17.83;11.80;;;18.70;99.90;;;;;;4980224;28;20046;-73
2022/08/18 02:20:11;;;;;;;17.77;10.68;;;19.50;99.90;;;;;;5014261;28;20093;-73
2022/08/18 02:22:37;;;;;;;21.33;10.27;;;19.00;99.90;;;;;;4996707;28;20038;-73
2022/08/18 02:25:03;;;;;;;16.83;10.55;;;19.10;99.90;;;;;;5013879;28;20093;-73
2022/08/18 02:27:29;;;;;;;24.52;11.02;;;18.70;99.90;;;;;;4996435;28;20085;-73
2022/08/18 02:29:55;;;;;;;21.45;12.50;;;19.10;99.90;;;;;;4996391;28;20041;-73
2022/08/18 02:32:20;;;;;;;16.63;10.68;;;18.60;99.90;;;;;;5014085;28;20450;-73
2022/08/18 02:34:46;;;;;;;20.67;11.35;;;18.90;99.90;;;;;;5013606;28;20461;-73
2022/08/18 02:37:11;;;;;;;24.83;10.82;;;21.10;99.90;;;;;;4996403;28;20042;-73
2022/08/18 02:39:38;;;;;;;19.65;11.32;;;19.10;99.90;;;;;;5013881;28;20092;-73
2022/08/18 02:42:07;;;;;;;19.70;10.23;;;19.00;99.90;;;;;;5013827;28;20041;-73
2022/08/18 02:44:33;;;;;;;17.60;9.95;;;18.90;99.90;;;;;;4995944;28;20495;-73
2022/08/18 02:46:59;;;;;;;21.92;9.90;;;19.20;99.90;;;;;;4995919;28;20046;-73
2022/08/18 02:49:25;;;;;;;20.48;10.52;;;19.30;99.90;;;;;;4995959;28;20046;-73
2022/08/18 02:51:52;;;;;;;19.23;9.23;;;19.00;99.90;;;;;;5013390;28;20042;-73
2022/08/18 02:54:22;;;;;;;15.77;10.00;;;19.20;99.90;;;;;;4995460;28;20042;-72
2022/08/18 02:56:50;;;;;;;19.05;9.63;;;19.40;99.90;;;;;;5013371;28;20129;-72
2022/08/18 02:59:26;;;;;;;15.65;8.73;;;19.00;99.90;;;;;;4995581;28;20177;-72
2022/08/18 03:01:54;;;;;;;18.48;8.65;;;19.40;99.90;;;;;;5013558;28;20038;-73
2022/08/18 03:04:27;;;;;;;15.23;8.05;;;18.90;99.90;;;;;;4995104;28;20046;-72
2022/08/18 03:06:53;;;;;;;15.02;7.47;;;20.50;99.90;;;;;;4995482;28;20033;-72
2022/08/18 03:09:19;;;;;;;10.85;7.30;;;18.60;99.90;;;;;;5013149;28;20045;-72
2022/08/18 03:11:46;;;;;;;14.05;7.55;;;18.70;99.90;;;;;;4995737;28;20038;-73
2022/08/18 03:14:13;;;;;;;14.93;8.93;;;19.10;99.90;;;;;;4995238;28;20034;-73
2022/08/18 03:16:41;;;;;;;16.75;7.88;;;18.80;99.90;;;;;;4995708;28;20081;-73
2022/08/18 03:19:06;;;;;;;11.48;7.93;;;18.80;99.90;;;;;;5012994;28;20108;-73
2022/08/18 03:21:36;;;;;;;12.18;8.10;;;18.70;99.90;;;;;;4979528;28;20068;-72
2022/08/18 03:24:03;;;;;;;15.25;9.20;;;18.70;99.90;;;;;;4995182;28;20045;-72
2022/08/18 03:26:30;;;;;;;10.68;8.18;;;18.70;99.90;;;;;;4979288;28;20408;-73
2022/08/18 03:28:58;;;;;;;17.05;7.82;;;19.90;99.90;;;;;;4995331;28;20046;-73
2022/08/18 03:31:26;;;;;;;13.23;7.43;;;18.60;99.90;;;;;;4995134;28;20049;-72
2022/08/18 03:33:53;;;;;;;16.80;8.07;;;20.30;99.90;;;;;;4994649;28;20046;-72
2022/08/18 03:36:25;;;;;;;10.45;8.13;;;18.80;99.90;;;;;;4994967;28;20045;-72
2022/08/18 03:38:52;;;;;;;15.20;8.53;;;18.50;99.90;;;;;;4995250;28;20172;-72
2022/08/18 03:41:23;;;;;;;10.77;8.60;;;18.80;99.90;;;;;;4995083;28;20042;-72
2022/08/18 03:43:50;;;;;;;10.65;8.20;;;18.70;99.90;;;;;;4978549;28;20049;-72
2022/08/18 03:46:18;;;;;;;18.25;10.35;;;19.00;99.90;;;;;;5012611;28;20124;-72
2022/08/18 03:48:46;;;;;;;11.85;8.63;;;18.90;99.90;;;;;;4994911;28;20053;-72
2022/08/18 03:51:26;;;;;;;11.45;9.18;;;18.90;99.90;;;;;;4994970;28;20044;-72
2022/08/18 03:53:55;;;;;;;11.60;8.88;;;18.40;99.90;;;;;;5012225;28;20041;-72
2022/08/18 03:56:23;;;;;;;13.68;8.60;;;19.40;99.90;;;;;;4994668;28;20129;-73
2022/08/18 03:58:55;;;;;;;17.92;8.85;;;18.80;99.90;;;;;;4994665;28;20053;-72
2022/08/18 04:01:24;;;;;;;10.25;8.90;;;18.80;99.90;;;;;;4994740;28;20125;-72
2022/08/18 04:03:55;;;;;;;13.02;8.70;;;18.60;99.90;;;;;;4994057;28;20492;-72
2022/08/18 04:06:28;;;;;;;14.88;9.30;;;19.50;99.90;;;;;;4994517;28;20046;-72
2022/08/18 04:08:55;;;;;;;;;;;18.90;99.90;;;;;;4994968;28;20214;-72
2022/08/18 04:11:21;;;;;;;14.88;8.88;;;18.30;99.90;;;;;;4994543;28;19917;-72
2022/08/18 04:13:47;;;;;;;12.57;8.45;;;20.00;99.90;;;;;;5011902;28;20045;-72
2022/08/18 04:16:13;;;;;;;15.57;9.55;;;19.30;99.90;;;;;;5011949;28;20048;-72
2022/08/18 04:18:39;;;;;;;14.35;8.90;;;18.70;99.90;;;;;;4994339;28;20046;-73
2022/08/18 04:21:08;;;;;;;16.38;10.90;;;20.00;99.90;;;;;;5012165;28;20041;-72
2022/08/18 04:23:36;;;;;;;17.27;10.35;;;18.90;99.90;;;;;;4994284;28;20041;-73
2022/08/18 04:26:02;;;;;;;11.60;10.38;;;19.10;99.90;;;;;;5011759;28;20518;-72
2022/08/18 04:28:29;;;;;;;10.63;8.75;;;18.90;99.90;;;;;;5012173;28;20445;-73
2022/08/18 04:30:58;;;;;;;13.93;9.63;;;18.80;99.90;;;;;;5011782;28;20103;-73
2022/08/18 04:33:25;;;;;;;14.75;10.43;;;18.80;99.90;;;;;;5012034;28;20081;-72
2022/08/18 04:35:52;;;;;;;15.50;10.43;;;18.90;99.90;;;;;;4993982;28;20045;-72
2022/08/18 04:38:18;;;;;;;16.52;11.18;;;19.20;99.90;;;;;;4978130;28;20112;-72
2022/08/18 04:40:44;;;;;;;19.58;12.38;;;18.80;99.90;;;;;;4994327;28;20073;-72
2022/08/18 04:43:14;;;;;;;17.45;12.32;;;18.70;99.90;;;;;;4978113;28;20099;-72
2022/08/18 04:45:41;;;;;;;16.17;10.70;;;18.90;99.90;;;;;;4994040;28;20496;-72
2022/08/18 04:48:07;;;;;;;13.93;11.45;;;18.80;99.90;;;;;;4994222;28;20121;-72
2022/08/18 04:50:34;;;;;;;18.95;12.38;;;18.90;99.90;;;;;;4994376;28;20167;-72
2022/08/18 04:55:50;;;;;;;17.52;12.15;;;18.70;99.90;;;;;;5011461;28;20045;-73
2022/08/18 04:58:17;;;;;;;16.55;11.77;;;18.60;99.90;;;;;;5011732;28;20057;-72
2022/08/18 05:00:44;;;;;;;15.68;11.30;;;18.90;99.90;;;;;;5011621;28;20496;-72
2022/08/18 05:03:10;;;;;;;17.35;11.65;;;18.60;99.90;;;;;;5010409;28;20053;-72
2022/08/18 05:05:36;;;;;;;19.67;11.88;;;19.00;99.90;;;;;;5011756;28;20046;-72
2022/08/18 05:08:01;;;;;;;17.52;11.85;;;18.80;99.90;;;;;;4994800;28;20050;-72
2022/08/18 05:10:27;;;;;;;17.15;11.98;;;18.80;99.90;;;;;;4994557;28;20044;-72
2022/08/18 05:12:53;;;;;;;18.00;12.45;;;19.10;99.90;;;;;;5010938;28;20092;-72
2022/08/18 05:15:19;;;;;;;22.80;12.55;;;18.80;99.90;;;;;;5011483;28;20125;-72
2022/08/18 05:17:45;;;;;;;20.45;13.07;;;19.00;99.90;;;;;;4994056;28;20042;-72
2022/08/18 05:20:11;;;;;;;21.85;12.82;;;18.80;99.90;;;;;;4996440;28;20057;-72
2022/08/18 05:22:39;;;;;;;19.38;12.77;;;18.80;99.90;;;;;;4997902;28;20480;-72
2022/08/18 05:25:09;;;;;;;20.25;13.48;;;19.00;99.90;;;;;;4997460;28;20041;-72
2022/08/18 05:27:37;;;;;;;14.85;12.25;;;18.90;99.90;;;;;;4997770;28;20492;-73
2022/08/18 05:30:06;;;;;;;16.35;12.85;;;18.80;99.90;;;;;;5015393;28;20048;-72
2022/08/18 05:32:40;;;;;;;17.15;12.00;;;19.10;99.90;;;;;;5015144;28;20053;-72
2022/08/18 05:35:11;;;;;;;17.48;10.95;;;18.90;99.90;;;;;;5014642;28;20073;-72
2022/08/18 05:38:10;;;;;;;22.23;10.85;;;19.00;99.90;;;;;;4997311;28;20538;-72
2022/08/18 05:40:35;;;;;;;16.13;11.90;;;19.10;99.90;;;;;;4997350;28;20042;-72
2022/08/18 05:43:03;;;;;;;14.18;10.75;;;19.10;99.90;;;;;;4997323;28;20040;-72
2022/08/18 05:45:29;;;;;;;18.70;9.93;;;18.70;99.90;;;;;;5014676;28;20214;-72
2022/08/18 05:47:58;;;;;;;18.27;10.23;;;19.80;99.90;;;;;;4997203;28;20515;-72
2022/08/18 05:50:26;;;;;;;21.17;10.90;;;19.20;99.90;;;;;;4997245;28;20053;-72
2022/08/18 05:52:56;;;;;;;15.98;10.70;;;19.20;99.90;;;;;;4996970;28;20081;-73
2022/08/18 05:58:49;;;;;;;16.98;11.00;;;19.30;99.90;;;;;;5014516;28;20042;-72
2022/08/18 06:01:21;;;;;;;21.17;11.13;;;20.50;99.90;;;;;;4997203;28;20104;-73
2022/08/18 06:04:07;;;;;;;21.05;10.82;;;18.90;99.90;;;;;;4980555;28;20435;-72
2022/08/18 06:06:35;;;;;;;19.02;10.52;;;19.30;99.90;;;;;;4980696;28;20052;-73
2022/08/18 06:09:12;;;;;;;17.17;10.82;;;19.10;99.90;;;;;;4996801;28;20514;-72
2022/08/18 06:11:38;;;;;;;16.30;10.25;;;19.80;99.90;;;;;;4996827;28;20533;-72
2022/08/18 06:14:04;;;;;;;16.60;9.48;;;18.90;99.90;;;;;;5014116;28;20125;-72
2022/08/18 06:16:48;;;;;;;19.70;10.55;;;19.10;99.90;;;;;;5005492;28;20376;-73
2022/08/18 06:19:19;;;;;;;19.67;9.70;;;19.10;99.90;;;;;;4993437;28;20041;-72
2022/08/18 06:21:59;;;;;;;25.02;9.07;;;19.50;99.90;;;;;;5010980;28;20090;-72
2022/08/18 06:24:48;;;;;;;13.02;7.75;;;19.10;99.90;;;;;;5010310;28;20074;-74
2022/08/18 06:27:29;;;;;;;17.65;7.38;;;19.20;99.90;;;;;;5006212;28;20034;-72
2022/08/18 06:29:55;;;;;;;14.02;6.30;;;19.70;99.90;;;;;;4991619;28;20042;-72
2022/08/18 06:32:56;;;;;;;17.17;7.57;;;19.40;99.90;;;;;;5011899;28;20044;-72
2022/08/18 06:35:30;;;;;;;14.57;5.65;;;19.20;99.90;;;;;;4986915;28;20092;-72
2022/08/18 06:41:32;;;;;;;10.93;6.13;;;19.10;99.90;;;;;;4999084;28;20574;-72
2022/08/18 06:44:03;;;;;;;16.25;6.40;;;19.50;99.90;;;;;;5017569;28;20045;-72
2022/08/18 06:47:02;;;;;;;10.90;5.50;;;19.40;99.90;;;;;;4995697;28;20039;-72
2022/08/18 06:49:45;;;;;;;8.32;4.32;;;19.20;99.90;;;;;;5014101;28;20052;-72
2022/08/18 06:52:29;;;;;;;6.72;3.80;;;19.10;99.90;;;;;;5019536;28;20053;-72
2022/08/18 06:55:15;;;;;;;9.93;4.35;;;19.30;99.90;;;;;;4989408;28;20512;-73
2022/08/18 06:57:57;;;;;;;7.50;3.30;;;19.50;99.90;;;;;;4978585;28;20596;-72
2022/08/18 07:00:29;;;;;;;12.48;3.20;;;19.90;99.90;;;;;;4991015;28;20088;-72
2022/08/18 07:03:20;;;;;;;8.05;4.07;;;19.20;99.90;;;;;;5010538;28;20117;-72
2022/08/18 07:06:06;;;;;;;5.38;2.85;;;19.50;99.90;;;;;;4990879;28;20050;-72
2022/08/18 07:08:44;;;;;;;5.93;3.00;;;19.40;99.90;;;;;;4998720;28;20049;-72
2022/08/18 07:11:16;;;;;;;9.18;3.17;;;19.40;99.90;;;;;;4987482;28;20049;-71
2022/08/18 07:13:44;;;;;;;7.15;2.80;;;19.70;99.90;;;;;;5011521;28;20049;-72
2022/08/18 07:16:18;;;;;;;6.95;3.03;;;19.40;99.90;;;;;;5000870;28;20045;-72
2022/08/18 07:18:44;;;;;;;7.53;3.10;;;19.80;99.90;;;;;;5013226;28;20108;-72
2022/08/18 07:21:24;;;;;;;5.60;2.38;;;20.40;99.90;;;;;;4978405;28;20114;-71
2022/08/18 07:24:03;;;;;;;7.63;2.58;;;19.70;99.90;;;;;;5013175;28;20044;-72
2022/08/18 07:26:29;;;;;;;4.75;2.42;;;19.70;99.90;;;;;;4984456;28;20058;-72
2022/08/18 07:29:11;;;;;;;9.05;2.10;;;19.70;99.90;;;;;;4992280;28;20038;-72
2022/08/18 07:31:47;;;;;;;6.40;1.80;;;20.00;99.90;;;;;;4975514;28;20046;-72
2022/08/18 07:34:26;;;;;;;7.47;2.13;;;19.30;99.90;;;;;;4992211;28;20089;-72
2022/08/18 07:37:11;;;;;;;7.35;2.15;;;19.50;99.90;;;;;;4975478;28;20064;-72
2022/08/18 07:39:46;;;;;;;5.45;1.63;;;19.40;99.90;;;;;;4982755;28;20074;-72
2022/08/18 07:42:47;;;;;;;8.63;1.60;;;19.40;99.90;;;;;;4956181;28;20578;-72
2022/08/18 07:45:29;;;;;;;9.38;2.10;;;19.10;99.90;;;;;;5000931;28;20042;-72
2022/08/18 07:48:03;;;;;;;5.43;1.90;;;19.60;99.90;;;;;;4992053;28;20579;-72
2022/08/18 07:50:35;;;;;;;4.95;1.60;;;19.80;99.90;;;;;;5001095;28;20412;-72
2022/08/18 07:53:37;;;;;;;6.63;2.05;;;20.10;99.90;;;;;;4992009;28;20508;-72
2022/08/18 07:56:25;;;;;;;3.67;1.55;;;19.80;99.90;;;;;;4998288;28;20118;-72
2022/08/18 07:59:01;;;;;;;3.05;1.50;;;20.00;99.90;;;;;;4997160;28;20046;-72
2022/08/18 08:01:54;;;;;;;4.82;1.85;;;20.10;99.90;;;;;;4993179;28;20048;-73
2022/08/18 08:04:39;;;;;;;3.08;1.70;;;19.50;99.90;;;;;;5035028;22;20045;-70
2022/08/18 08:07:11;;;;;;;5.57;1.88;;;19.70;99.90;;;;;;5031197;28;20116;-70
2022/08/18 08:09:58;;;;;;;6.85;1.58;;;19.90;99.90;;;;;;5020812;28;20499;-70
2022/08/18 08:12:33;;;;;;;4.00;1.80;;;19.70;99.90;;;;;;5030452;28;20045;-70
2022/08/18 08:15:21;;;;;;;6.68;1.73;;;20.70;99.90;;;;;;5020029;28;20389;-69
2022/08/18 08:18:17;;;;;;;7.35;1.50;;;19.70;99.90;;;;;;5030170;28;20048;-70
2022/08/18 08:21:00;;;;;;;5.18;1.70;;;20.10;99.90;;;;;;5013635;28;20044;-71
2022/08/18 08:23:56;;;;;;;5.20;1.88;;;20.10;99.90;;;;;;5029194;28;20048;-71
2022/08/18 08:26:35;;;;;;;4.72;1.80;;;20.10;99.90;;;;;;5030239;28;20072;-70
2022/08/18 08:29:25;;;;;;;5.97;2.10;;;20.10;99.90;;;;;;5028469;28;20121;-70
2022/08/18 08:32:03;;;;;;;5.95;2.33;;;20.00;99.90;;;;;;5022641;28;20038;-71
2022/08/18 08:34:38;;;;;;;5.70;2.25;;;19.90;99.90;;;;;;5020908;28;20475;-70
2022/08/18 08:37:08;;;;;;;6.40;2.20;;;20.20;99.90;;;;;;5023823;28;20052;-70
2022/08/18 08:39:56;;;;;;;7.57;2.33;;;20.30;99.90;;;;;;5005934;28;20034;-70
2022/08/18 08:42:37;;;;;;;6.32;2.10;;;20.00;99.90;;;;;;5026907;28;20404;-70
2022/08/18 08:45:19;;;;;;;10.55;2.08;;;20.10;99.90;;;;;;5029320;28;20111;-71
2022/08/18 08:48:00;;;;;;;9.32;1.92;;;20.70;99.90;;;;;;5020730;28;20499;-70
2022/08/18 08:50:29;;;;;;;6.38;2.05;;;20.60;99.90;;;;;;5012759;28;20491;-70
2022/08/18 08:53:20;;;;;;;6.68;1.60;;;20.60;99.90;;;;;;5019065;28;20117;-69
2022/08/18 08:55:54;;;;;;;5.18;1.85;;;21.30;99.90;;;;;;5013419;28;20100;-70
2022/08/18 08:58:29;;;;;;;4.63;1.58;;;20.50;99.90;;;;;;5016229;28;20188;-70
2022/08/18 09:00:56;;;;;;;5.88;1.48;;;20.70;99.90;;;;;;5033753;28;20041;-71
2022/08/18 09:03:32;;;;;;;4.90;2.00;;;20.80;99.90;;;;;;5007227;28;20033;-70
2022/08/18 09:06:22;;;;;;;3.95;1.70;;;21.10;99.90;;;;;;5033590;28;20052;-70
2022/08/18 09:09:03;;;;;;;4.47;1.60;;;20.80;99.90;;;;;;5033684;28;20128;-69
2022/08/18 09:11:47;;;;;;;3.63;2.20;;;20.60;99.90;;;;;;5030424;28;20573;-70
2022/08/18 09:14:37;;;;;;;4.50;2.00;;;20.60;99.90;;;;;;5030930;28;20080;-69
2022/08/18 09:17:40;;;;;;;5.78;1.85;;;20.60;99.90;;;;;;5034648;28;20045;-70
2022/08/18 09:20:41;;;;;;;3.28;1.40;;;20.40;99.90;;;;;;5016264;28;20045;-69
2022/08/18 09:23:11;;;;;;;5.85;1.60;;;20.60;99.90;;;;;;5015821;28;20041;-69
2022/08/18 09:25:40;;;;;;;7.32;1.48;;;20.70;99.90;;;;;;5016344;28;20056;-70
2022/08/18 09:28:11;;;;;;;3.33;1.50;;;20.90;99.90;;;;;;5012578;28;20038;-70
2022/08/18 09:31:02;;;;;;;1.80;1.20;;;20.40;99.90;;;;;;5017754;28;20113;-69
2022/08/18 09:33:39;;;;;;;4.57;1.48;;;20.50;99.90;;;;;;5033565;28;20037;-69
2022/08/18 09:36:14;;;;;;;3.47;1.27;;;21.50;99.90;;;;;;5013061;28;20514;-69
2022/08/18 09:41:48;;;;;;;3.47;1.15;;;20.60;99.90;;;;;;5016693;28;20034;-69
2022/08/18 09:44:45;;;;;;;2.38;1.20;;;21.00;99.90;;;;;;5022222;28;20046;-69
2022/08/18 09:47:32;;;;;;;2.35;1.30;;;20.90;99.90;;;;;;5030677;28;20049;-70
2022/08/18 09:50:04;;;;;;;6.22;1.73;;;21.90;99.90;;;;;;4991497;28;20058;-70
2022/08/18 09:52:32;;;;;;;1.65;1.33;;;21.20;99.90;;;;;;5013941;28;20049;-69
2022/08/18 09:54:58;;;;;;;3.22;1.38;;;22.20;99.90;;;;;;5015976;28;20052;-70
2022/08/18 09:57:29;;;;;;;2.25;1.30;;;20.80;99.90;;;;;;5027327;28;20029;-69
2022/08/18 10:00:24;;;;;;;3.58;1.85;;;21.50;99.90;;;;;;5015928;28;20041;-70
2022/08/18 10:02:49;;;;;;;3.35;1.42;;;20.70;99.90;;;;;;5028462;28;20080;-70
2022/08/18 10:05:18;;;;;;;3.10;1.42;;;21.00;99.90;;;;;;5031985;28;20423;-70
2022/08/18 10:07:55;;;;;;;7.03;2.28;;;21.20;99.90;;;;;;5033603;28;20055;-70
2022/08/18 10:10:41;;;;;;;5.03;1.48;;;21.10;99.90;;;;;;5022525;28;20042;-69
2022/08/18 10:13:16;;;;;;;5.43;1.55;;;21.50;99.90;;;;;;5013376;28;20042;-69
2022/08/18 10:16:00;;;;;;;2.63;1.63;;;21.50;99.90;;;;;;5017218;28;20073;-70
2022/08/18 10:18:51;;;;;;;4.13;1.60;;;21.70;99.90;;;;;;5014639;28;20121;-70
2022/08/18 10:21:25;;;;;;;4.55;1.80;;;21.70;99.90;;;;;;5013796;28;20392;-69
2022/08/18 10:24:01;;;;;;;4.43;1.30;;;22.00;99.90;;;;;;5013350;28;20036;-69
2022/08/18 10:26:30;;;;;;;2.70;1.40;;;21.60;99.90;;;;;;5012367;28;20508;-69
2022/08/18 10:29:05;;;;;;;4.47;1.50;;;22.80;99.90;;;;;;5020712;28;20049;-70
2022/08/18 10:31:56;;;;;;;4.47;1.63;;;22.10;99.90;;;;;;5006641;28;20045;-68
2022/08/18 10:34:41;;;;;;;6.75;2.90;;;21.60;99.90;;;;;;5028102;28;20088;-69
2022/08/18 10:37:21;;;;;;;2.97;1.25;;;21.30;99.90;;;;;;5027641;28;20045;-70
2022/08/18 10:39:52;;;;;;;4.63;1.67;;;21.30;99.90;;;;;;5027689;28;20025;-70
2022/08/18 10:42:33;;;;;;;3.10;1.30;;;21.50;99.90;;;;;;5024557;28;20049;-69
2022/08/18 10:45:24;;;;;;;3.22;1.25;;;21.40;99.90;;;;;;5020709;28;20037;-70
2022/08/18 10:48:29;;;;;;;1.88;1.30;;;21.30;99.90;;;;;;5021005;28;20633;-70
2022/08/18 10:51:17;;;;;;;3.40;1.98;;;21.40;99.90;;;;;;5018176;28;20074;-68
2022/08/18 10:53:43;;;;;;;2.55;1.17;;;21.40;99.90;;;;;;5023546;28;20131;-69
2022/08/18 10:56:40;;;;;;;3.92;1.25;;;21.30;99.90;;;;;;5026981;28;20061;-69
2022/08/18 10:59:28;;;;;;;2.97;1.50;;;21.30;99.90;;;;;;5022581;28;20117;-69
2022/08/18 11:02:15;;;;;;;2.78;1.10;;;22.30;99.90;;;;;;5027948;28;20051;-70
2022/08/18 11:04:47;;;;;;;3.15;1.60;;;21.80;99.90;;;;;;5029634;28;20275;-70
2022/08/18 11:07:22;;;;;;;5.05;1.30;;;21.80;99.90;;;;;;5030978;28;20045;-70
2022/08/18 11:09:50;;;;;;;3.70;1.60;;;22.00;99.90;;;;;;5027207;28;20466;-70
2022/08/18 11:12:54;;;;;;;2.60;1.60;;;22.00;99.90;;;;;;5029866;28;20037;-70
2022/08/18 11:15:38;;;;;;;;;;;21.50;99.90;;;;;;5017747;28;20080;-70
2022/08/18 11:18:15;;;;;;;2.05;1.30;;;21.90;99.90;;;;;;5029909;28;20402;-70
2022/08/18 11:20:42;;;;;;;3.42;1.90;;;21.80;99.90;;;;;;5030925;28;20079;-70
2022/08/18 11:23:14;;;;;;;2.72;1.30;;;21.70;99.90;;;;;;5031010;28;20128;-70
2022/08/18 11:25:40;;;;;;;2.53;1.20;;;22.20;99.90;;;;;;5030835;28;20067;-70
2022/08/18 11:28:18;;;;;;;3.78;1.95;;;21.90;99.90;;;;;;5032171;28;20049;-70
2022/08/18 11:30:49;;;;;;;2.10;1.00;;;22.10;99.90;;;;;;5030955;28;20418;-70
2022/08/18 11:33:16;;;;;;;4.65;1.50;;;23.30;99.90;;;;;;5030607;28;20045;-70
2022/08/18 11:35:57;;;;;;;2.80;1.00;;;22.90;99.90;;;;;;5030157;28;20404;-70
2022/08/18 11:38:22;;;;;;;2.70;1.25;;;22.90;99.90;;;;;;5031680;28;20510;-70
2022/08/18 11:40:53;;;;;;;1.67;1.35;;;22.60;99.90;;;;;;5018179;28;20038;-70
2022/08/18 11:43:25;;;;;;;2.65;1.50;;;22.60;99.90;;;;;;5030664;28;20041;-70
2022/08/18 11:45:59;;;;;;;3.07;1.57;;;22.60;99.90;;;;;;5030156;28;20470;-70
2022/08/18 11:48:30;;;;;;;5.43;1.33;;;22.40;99.90;;;;;;5004998;28;20029;-70
2022/08/18 11:50:55;;;;;;;4.28;1.25;;;22.00;99.90;;;;;;5017208;28;20113;-70
2022/08/18 11:53:47;;;;;;;2.65;1.30;;;21.80;99.90;;;;;;5010607;28;20089;-69
2022/08/18 11:56:13;;;;;;;2.05;1.20;;;21.90;99.90;;;;;;5010450;28;20064;-70
2022/08/18 11:58:44;;;;;;;1.67;1.48;;;22.00;99.90;;;;;;5014678;28;20040;-71
2022/08/18 12:01:30;;;;;;;1.48;1.20;;;22.20;99.90;;;;;;5013952;28;20041;-70
2022/08/18 12:04:09;;;;;;;3.70;1.20;;;22.20;99.90;;;;;;5031117;28;20041;-70
2022/08/18 12:06:38;;;;;;;1.98;1.17;;;21.90;99.90;;;;;;5029839;28;20045;-70
2022/08/18 12:09:13;;;;;;;4.80;1.45;;;23.40;99.90;;;;;;5030244;28;20127;-71
2022/08/18 12:12:00;;;;;;;3.28;1.40;;;22.20;99.90;;;;;;5030033;28;20120;-71
2022/08/18 12:14:30;;;;;;;2.13;1.52;;;21.90;99.90;;;;;;5030083;28;20503;-71
2022/08/18 12:16:56;;;;;;;4.70;1.30;;;22.70;99.90;;;;;;5029057;28;20038;-71
2022/08/18 12:19:23;;;;;;;2.70;1.42;;;22.50;99.90;;;;;;5029541;28;20519;-71
2022/08/18 12:21:55;;;;;;;1.92;1.30;;;22.80;99.90;;;;;;5029915;28;20569;-71
2022/08/18 12:24:32;;;;;;;2.47;1.25;;;23.00;99.90;;;;;;5028979;28;20553;-69
2022/08/18 12:26:58;;;;;;;3.78;1.67;;;23.40;99.90;;;;;;5031105;28;20503;-70
2022/08/18 12:29:25;;;;;;;2.08;1.25;;;22.70;99.90;;;;;;5029626;28;20041;-69
2022/08/18 12:31:53;;;;;;;4.70;1.40;;;23.40;99.90;;;;;;5029759;28;20540;-71
2022/08/18 12:34:23;;;;;;;2.25;1.33;;;22.60;99.90;;;;;;5029638;28;20037;-70
2022/08/18 12:36:50;;;;;;;2.65;1.50;;;22.90;99.90;;;;;;5028730;28;20709;-70
2022/08/18 12:39:17;;;;;;;3.10;1.08;;;23.30;99.90;;;;;;5030074;28;20034;-71
2022/08/18 12:41:42;;;;;;;1.40;1.02;;;24.70;99.90;;;;;;5029373;28;20037;-72
2022/08/18 12:44:09;;;;;;;3.28;1.70;;;23.20;99.90;;;;;;5029506;28;20158;-71
2022/08/18 12:46:34;;;;;;;2.45;1.60;;;23.10;99.90;;;;;;5030940;28;20060;-72
2022/08/18 12:49:03;;;;;;;2.65;1.25;;;22.90;99.90;;;;;;5029080;28;20052;-72
2022/08/18 12:51:29;;;;;;;4.07;1.30;;;23.10;99.90;;;;;;5030540;28;20041;-72
2022/08/18 12:53:55;;;;;;;2.13;1.73;;;24.00;99.90;;;;;;5029125;28;20125;-71
2022/08/18 12:56:28;;;;;;;1.73;1.52;;;23.80;99.90;;;;;;5013138;28;20044;-72
2022/08/18 12:58:55;;;;;;;1.65;1.40;;;23.30;99.90;;;;;;5029871;28;20033;-71
2022/08/18 13:01:21;;;;;;;2.85;1.48;;;23.30;99.90;;;;;;5029848;28;20034;-72
2022/08/18 13:03:47;;;;;;;1.88;1.02;;;23.90;99.90;;;;;;5029678;28;20568;-72
2022/08/18 13:06:14;;;;;;;2.42;1.60;;;23.80;99.90;;;;;;5028857;28;20038;-72
2022/08/18 13:08:40;;;;;;;1.70;1.60;;;23.30;99.90;;;;;;5030091;28;20403;-71
2022/08/18 13:11:09;;;;;;;1.83;1.48;;;23.50;99.90;;;;;;5029302;28;20479;-71
2022/08/18 13:13:39;;;;;;;2.67;1.50;;;23.90;99.90;;;;;;5029332;28;20046;-70
2022/08/18 13:16:06;;;;;;;2.40;1.70;;;23.50;99.90;;;;;;5028853;28;20048;-70
2022/08/18 13:18:32;;;;;;;2.13;1.40;;;23.60;99.90;;;;;;5029426;28;20065;-71
2022/08/18 13:20:59;;;;;;;3.45;1.70;;;23.70;99.90;;;;;;5028821;28;20065;-70
2022/08/18 13:23:28;;;;;;;4.30;2.42;;;23.20;99.90;;;;;;5017379;28;20038;-70
2022/08/18 13:25:56;;;;;;;3.75;1.65;;;23.40;99.90;;;;;;5011261;28;20037;-71
2022/08/18 13:28:23;;;;;;;5.05;1.80;;;23.80;99.90;;;;;;5029332;28;20650;-70
2022/08/18 13:30:49;;;;;;;1.45;1.20;;;24.10;99.90;;;;;;5029389;28;20048;-71